createdAt,value
2022-08-29T00:00:17.858Z,101489.16
2022-08-29T00:00:42.391Z,101473.91
2022-08-29T00:01:05.620Z,101488.28
2022-08-29T00:01:27.349Z,101485.69
2022-08-29T00:01:50.107Z,101474.94
2022-08-29T00:02:11.924Z,101481.16
2022-08-29T00:02:33.711Z,101484.81
2022-08-29T00:02:59.994Z,101483.84
2022-08-29T00:03:25.247Z,101483.63
2022-08-29T00:03:49.354Z,101475.44
2022-08-29T00:04:11.915Z,101472.81
2022-08-29T00:04:33.722Z,101471.28
2022-08-29T00:04:57.771Z,101469.56
2022-08-29T00:05:25.125Z,101479.09
2022-08-29T00:05:50.074Z,101472.66
2022-08-29T00:06:13.459Z,101472.66
2022-08-29T00:06:36.162Z,101474.56
2022-08-29T00:06:58.318Z,101475.75
2022-08-29T00:07:20.323Z,101468.59
2022-08-29T00:07:42.110Z,101467.94
2022-08-29T00:08:06.109Z,101468.22
2022-08-29T00:08:27.968Z,101468.88
2022-08-29T00:08:49.735Z,101477.88
2022-08-29T00:09:11.712Z,101469.19
2022-08-29T00:09:33.413Z,101475.34
2022-08-29T00:09:56.040Z,101469.84
2022-08-29T00:10:17.988Z,101471.00
2022-08-29T00:10:41.439Z,101469.19
2022-08-29T00:11:05.954Z,101471.88
2022-08-29T00:11:28.647Z,101466.56
2022-08-29T00:11:50.457Z,101467.44
2022-08-29T00:12:12.133Z,101475.47
2022-08-29T00:12:36.028Z,101471.88
2022-08-29T00:12:59.031Z,101473.72
2022-08-29T00:13:21.077Z,101469.28
2022-08-29T00:13:42.861Z,101463.41
2022-08-29T00:14:04.662Z,101471.97
2022-08-29T00:14:27.649Z,101473.72
2022-08-29T00:14:49.380Z,101464.75
2022-08-29T00:15:12.491Z,101471.88
2022-08-29T00:15:42.224Z,101466.69
2022-08-29T00:16:08.709Z,101467.75
2022-08-29T00:16:30.555Z,101467.75
2022-08-29T00:16:52.339Z,101460.81
2022-08-29T00:17:14.067Z,101462.44
2022-08-29T00:17:35.759Z,101471.41
2022-08-29T00:17:58.364Z,101457.22
2022-08-29T00:18:20.459Z,101466.00
2022-08-29T00:18:42.693Z,101473.22
2022-08-29T00:19:04.372Z,101466.88
2022-08-29T00:19:27.032Z,101458.78
2022-08-29T00:19:48.879Z,101468.81
2022-08-29T00:20:13.770Z,101464.25
2022-08-29T00:20:37.762Z,101459.72
2022-08-29T00:20:59.432Z,101460.81
2022-08-29T00:21:21.148Z,101455.41
2022-08-29T00:21:42.833Z,101461.69
2022-08-29T00:22:06.008Z,101468.03
2022-08-29T00:22:28.007Z,101463.59
2022-08-29T00:22:49.657Z,101469.00
2022-08-29T00:23:11.960Z,101469.28
2022-08-29T00:23:33.997Z,101461.09
2022-08-29T00:23:56.697Z,101447.09
2022-08-29T00:24:29.141Z,101468.03
2022-08-29T00:24:50.869Z,101458.19
2022-08-29T00:25:14.220Z,101457.31
2022-08-29T00:25:36.922Z,101459.16
2022-08-29T00:25:58.556Z,101465.34
2022-08-29T00:26:20.236Z,101470.81
2022-08-29T00:26:41.937Z,101460.13
2022-08-29T00:27:04.674Z,101468.31
2022-08-29T00:27:27.413Z,101470.06
2022-08-29T00:27:51.141Z,101466.69
2022-08-29T00:28:13.253Z,101465.72
2022-08-29T00:28:34.973Z,101469.38
2022-08-29T00:28:57.629Z,101470.25
2022-08-29T00:29:20.916Z,101460.41
2022-08-29T00:29:43.948Z,101470.44
2022-08-29T00:30:07.773Z,101468.91
2022-08-29T00:30:31.325Z,101474.09
2022-08-29T00:30:52.971Z,101470.53
2022-08-29T00:31:14.870Z,101474.03
2022-08-29T00:31:37.108Z,101474.78
2022-08-29T00:31:58.989Z,101474.78
2022-08-29T00:32:21.593Z,101470.25
2022-08-29T00:32:43.513Z,101471.03
2022-08-29T00:33:05.420Z,101471.13
2022-08-29T00:33:27.240Z,101474.03
2022-08-29T00:33:51.665Z,101472.19
2022-08-29T00:34:13.333Z,101470.44
2022-08-29T00:34:35.049Z,101478.63
2022-08-29T00:34:57.004Z,101473.34
2022-08-29T00:35:22.735Z,101473.34
2022-08-29T00:35:47.377Z,101474.19
2022-08-29T00:36:10.350Z,101472.56
2022-08-29T00:36:32.017Z,101472.56
2022-08-29T00:36:54.840Z,101475.34
2022-08-29T00:37:17.712Z,101476.22
2022-08-29T00:37:39.953Z,101477.31
2022-08-29T00:38:05.501Z,101468.41
2022-08-29T00:38:27.915Z,101473.81
2022-08-29T00:38:51.270Z,101474.69
2022-08-29T00:39:14.080Z,101464.09
2022-08-29T00:39:35.772Z,101472.06
2022-08-29T00:39:58.261Z,101471.13
2022-08-29T00:40:24.444Z,101479.22
2022-08-29T00:40:51.684Z,101477.38
2022-08-29T00:41:13.781Z,101472.88
2022-08-29T00:41:35.764Z,101471.03
2022-08-29T00:41:57.460Z,101472.88
2022-08-29T00:42:20.126Z,101469.28
2022-08-29T00:42:41.945Z,101478.19
2022-08-29T00:43:06.938Z,101468.41
2022-08-29T00:43:30.844Z,101465.81
2022-08-29T00:43:53.476Z,101472.94
2022-08-29T00:44:15.181Z,101478.34
2022-08-29T00:44:36.848Z,101474.03
2022-08-29T00:44:58.545Z,101465.94
2022-08-29T00:45:20.424Z,101474.03
2022-08-29T00:45:50.931Z,101470.53
2022-08-29T00:46:31.471Z,101472.44
2022-08-29T00:46:55.900Z,101474.19
2022-08-29T00:47:22.936Z,101466.09
2022-08-29T00:47:49.351Z,101469.50
2022-08-29T00:48:15.109Z,101472.28
2022-08-29T00:48:39.049Z,101478.63
2022-08-29T00:49:09.337Z,101474.19
2022-08-29T00:49:36.647Z,101475.28
2022-08-29T00:49:58.492Z,101472.75
2022-08-29T00:50:27.248Z,101471.88
2022-08-29T00:50:53.612Z,101472.81
2022-08-29T00:51:19.392Z,101480.91
2022-08-29T00:51:41.661Z,101472.03
2022-08-29T00:52:08.769Z,101475.59
2022-08-29T00:52:33.713Z,101467.72
2022-08-29T00:52:57.803Z,101476.69
2022-08-29T00:53:29.135Z,101475.91
2022-08-29T00:53:55.025Z,101476.84
2022-08-29T00:54:17.930Z,101473.97
2022-08-29T00:54:41.329Z,101461.53
2022-08-29T00:55:11.052Z,101473.19
2022-08-29T00:55:36.301Z,101473.88
2022-08-29T00:55:59.049Z,101468.47
2022-08-29T00:56:21.585Z,101466.06
2022-08-29T00:56:44.713Z,101465.88
2022-08-29T00:57:08.402Z,101470.28
2022-08-29T00:57:32.522Z,101473.00
2022-08-29T00:57:57.517Z,101470.41
2022-08-29T00:58:26.803Z,101464.81
2022-08-29T00:58:54.448Z,101452.84
2022-08-29T00:59:20.570Z,101463.06
2022-08-29T00:59:42.599Z,101464.03
2022-08-29T01:00:07.198Z,101458.91
2022-08-29T01:00:29.944Z,101451.81
2022-08-29T01:00:52.250Z,101462.19
2022-08-29T01:01:14.054Z,101461.31
2022-08-29T01:01:36.082Z,101462.41
2022-08-29T01:01:59.006Z,101455.25
2022-08-29T01:02:20.826Z,101458.81
2022-08-29T01:02:43.390Z,101461.53
2022-08-29T01:03:05.260Z,101461.44
2022-08-29T01:03:32.747Z,101465.09
2022-08-29T01:03:54.516Z,101461.72
2022-08-29T01:04:24.082Z,101463.34
2022-08-29T01:04:47.516Z,101463.34
2022-08-29T01:05:11.365Z,101455.63
2022-08-29T01:05:33.923Z,101461.81
2022-08-29T01:05:55.837Z,101457.44
2022-08-29T01:06:20.112Z,101467.00
2022-08-29T01:06:43.244Z,101468.94
2022-08-29T01:07:05.879Z,101461.81
2022-08-29T01:07:27.730Z,101470.59
2022-08-29T01:07:51.886Z,101462.59
2022-08-29T01:08:13.927Z,101471.38
2022-08-29T01:08:36.056Z,101473.19
2022-08-29T01:08:58.494Z,101467.00
2022-08-29T01:09:20.968Z,101472.13
2022-08-29T01:09:47.026Z,101474.72
2022-08-29T01:10:12.714Z,101471.09
2022-08-29T01:10:55.075Z,101469.34
2022-08-29T01:11:36.377Z,101472.25
2022-08-29T01:12:16.297Z,101468.75
2022-08-29T01:12:38.441Z,101476.94
2022-08-29T01:13:00.422Z,101476.09
2022-08-29T01:13:27.542Z,101478.78
2022-08-29T01:13:53.037Z,101477.91
2022-08-29T01:14:15.367Z,101470.00
2022-08-29T01:14:38.757Z,101475.38
2022-08-29T01:15:06.554Z,101477.06
2022-08-29T01:15:30.508Z,101473.41
2022-08-29T01:15:52.703Z,101483.41
2022-08-29T01:16:16.177Z,101477.91
2022-08-29T01:16:38.749Z,101480.78
2022-08-29T01:17:03.923Z,101479.91
2022-08-29T01:17:28.016Z,101468.72
2022-08-29T01:17:49.964Z,101481.84
2022-08-29T01:18:15.320Z,101484.28
2022-08-29T01:18:40.233Z,101489.75
2022-08-29T01:19:16.088Z,101468.06
2022-08-29T01:19:45.907Z,101485.44
2022-08-29T01:20:19.209Z,101490.72
2022-08-29T01:20:56.572Z,101489.66
2022-08-29T01:21:29.924Z,101470.47
2022-08-29T01:22:02.117Z,101490.72
2022-08-29T01:22:52.732Z,101490.63
2022-08-29T01:23:21.047Z,101485.31
2022-08-29T01:23:50.377Z,101495.94
2022-08-29T01:24:25.281Z,101505.88
2022-08-29T01:24:50.914Z,101492.66
2022-08-29T01:25:16.359Z,101499.88
2022-08-29T01:25:41.649Z,101507.09
2022-08-29T01:26:04.991Z,101497.38
2022-08-29T01:26:29.474Z,101499.09
2022-08-29T01:26:51.102Z,101498.22
2022-08-29T01:27:14.467Z,101493.59
2022-08-29T01:27:39.210Z,101499.00
2022-08-29T01:28:06.452Z,101502.66
2022-08-29T01:28:32.153Z,101504.47
2022-08-29T01:28:54.492Z,101501.78
2022-08-29T01:29:16.561Z,101497.38
2022-08-29T01:29:38.350Z,101501.78
2022-08-29T01:30:01.008Z,101502.84
2022-08-29T01:30:23.636Z,101504.69
2022-08-29T01:31:00.604Z,101500.91
2022-08-29T01:31:37.818Z,101500.06
2022-08-29T01:32:06.926Z,101497.63
2022-08-29T01:32:28.731Z,101500.31
2022-08-29T01:32:51.434Z,101500.53
2022-08-29T01:33:13.144Z,101497.91
2022-08-29T01:33:41.545Z,101494.53
2022-08-29T01:34:04.453Z,101495.50
2022-08-29T01:34:29.226Z,101488.34
2022-08-29T01:34:50.934Z,101497.44
2022-08-29T01:35:13.162Z,101500.00
2022-08-29T01:35:34.922Z,101501.84
2022-08-29T01:35:57.640Z,101495.69
2022-08-29T01:36:22.483Z,101493.84
2022-08-29T01:36:47.381Z,101493.84
2022-08-29T01:37:12.222Z,101499.84
2022-08-29T01:37:36.851Z,101494.34
2022-08-29T01:37:58.555Z,101496.94
2022-08-29T01:38:27.571Z,101493.56
2022-08-29T01:38:50.789Z,101493.50
2022-08-29T01:39:12.810Z,101504.09
2022-08-29T01:39:39.401Z,101499.72
2022-08-29T01:40:01.209Z,101503.22
2022-08-29T01:40:29.618Z,101499.94
2022-08-29T01:40:51.315Z,101496.28
2022-08-29T01:41:14.553Z,101499.06
2022-08-29T01:41:41.626Z,101486.22
2022-08-29T01:42:06.759Z,101503.69
2022-08-29T01:42:29.689Z,101510.63
2022-08-29T01:42:58.476Z,101506.88
2022-08-29T01:43:20.133Z,101502.44
2022-08-29T01:43:44.286Z,101501.59
2022-08-29T01:44:12.377Z,101505.91
2022-08-29T01:44:34.537Z,101502.19
2022-08-29T01:44:58.756Z,101495.22
2022-08-29T01:45:20.876Z,101505.72
2022-08-29T01:45:42.681Z,101501.31
2022-08-29T01:46:06.509Z,101504.75
2022-08-29T01:46:31.266Z,101513.66
2022-08-29T01:47:00.256Z,101505.47
2022-08-29T01:47:26.588Z,101501.97
2022-08-29T01:47:49.308Z,101499.38
2022-08-29T01:48:10.977Z,101503.81
2022-08-29T01:48:32.633Z,101504.75
2022-08-29T01:48:54.423Z,101502.06
2022-08-29T01:49:18.190Z,101495.03
2022-08-29T01:49:41.142Z,101503.03
2022-08-29T01:50:05.733Z,101505.56
2022-08-29T01:50:28.020Z,101507.38
2022-08-29T01:50:50.186Z,101509.22
2022-08-29T01:51:16.784Z,101491.84
2022-08-29T01:51:38.546Z,101498.78
2022-08-29T01:52:00.861Z,101496.06
2022-08-29T01:52:24.863Z,101497.03
2022-08-29T01:52:46.559Z,101502.34
2022-08-29T01:53:08.204Z,101508.81
2022-08-29T01:53:29.855Z,101504.44
2022-08-29T01:53:52.927Z,101504.44
2022-08-29T01:54:15.618Z,101503.69
2022-08-29T01:54:40.038Z,101507.06
2022-08-29T01:55:01.751Z,101506.19
2022-08-29T01:55:24.463Z,101499.72
2022-08-29T01:55:46.139Z,101506.00
2022-08-29T01:56:12.466Z,101509.50
2022-08-29T01:56:37.988Z,101500.53
2022-08-29T01:57:01.413Z,101499.13
2022-08-29T01:57:24.111Z,101505.31
2022-08-29T01:57:45.777Z,101501.69
2022-08-29T01:58:09.714Z,101506.19
2022-08-29T01:58:31.411Z,101506.28
2022-08-29T01:58:54.511Z,101505.53
2022-08-29T01:59:20.100Z,101507.34
2022-08-29T01:59:43.401Z,101505.59
2022-08-29T02:00:08.944Z,101501.84
2022-08-29T02:00:30.772Z,101505.53
2022-08-29T02:00:53.715Z,101508.91
2022-08-29T02:01:18.964Z,101502.53
2022-08-29T02:01:47.888Z,101496.63
2022-08-29T02:02:15.439Z,101507.94
2022-08-29T02:02:38.696Z,101510.72
2022-08-29T02:03:02.072Z,101498.97
2022-08-29T02:03:25.804Z,101513.22
2022-08-29T02:03:47.793Z,101507.00
2022-08-29T02:04:09.688Z,101510.53
2022-08-29T02:04:31.635Z,101509.75
2022-08-29T02:04:58.638Z,101509.84
2022-08-29T02:05:22.952Z,101513.41
2022-08-29T02:05:47.505Z,101510.03
2022-08-29T02:06:10.331Z,101513.50
2022-08-29T02:06:33.302Z,101513.63
2022-08-29T02:06:56.120Z,101506.41
2022-08-29T02:07:20.270Z,101514.75
2022-08-29T02:07:42.895Z,101507.50
2022-08-29T02:08:05.179Z,101503.19
2022-08-29T02:08:26.824Z,101504.94
2022-08-29T02:08:48.627Z,101508.56
2022-08-29T02:09:11.206Z,101515.72
2022-08-29T02:09:34.022Z,101506.66
2022-08-29T02:09:56.978Z,101508.31
2022-08-29T02:10:18.785Z,101509.16
2022-08-29T02:10:40.458Z,101508.09
2022-08-29T02:11:03.164Z,101502.91
2022-08-29T02:11:25.021Z,101507.22
2022-08-29T02:11:48.210Z,101503.78
2022-08-29T02:12:10.294Z,101501.09
2022-08-29T02:12:32.943Z,101502.03
2022-08-29T02:12:54.660Z,101502.81
2022-08-29T02:13:16.314Z,101500.28
2022-08-29T02:13:38.292Z,101509.38
2022-08-29T02:13:59.997Z,101496.91
2022-08-29T02:14:23.593Z,101504.34
2022-08-29T02:14:45.486Z,101498.06
2022-08-29T02:15:07.625Z,101505.38
2022-08-29T02:15:29.290Z,101502.78
2022-08-29T02:15:52.728Z,101500.16
2022-08-29T02:16:15.396Z,101497.56
2022-08-29T02:16:37.203Z,101507.47
2022-08-29T02:16:58.901Z,101502.19
2022-08-29T02:17:21.713Z,101498.69
2022-08-29T02:17:43.442Z,101498.91
2022-08-29T02:18:06.860Z,101503.22
2022-08-29T02:18:28.608Z,101497.91
2022-08-29T02:18:51.700Z,101495.13
2022-08-29T02:19:13.997Z,101489.59
2022-08-29T02:19:37.037Z,101503.56
2022-08-29T02:19:58.704Z,101501.75
2022-08-29T02:20:21.384Z,101497.56
2022-08-29T02:20:43.140Z,101503.69
2022-08-29T02:21:05.025Z,101505.59
2022-08-29T02:21:30.012Z,101507.13
2022-08-29T02:21:52.376Z,101509.94
2022-08-29T02:22:15.255Z,101508.09
2022-08-29T02:22:38.876Z,101513.59
2022-08-29T02:23:01.163Z,101511.78
2022-08-29T02:23:30.832Z,101510.03
2022-08-29T02:23:54.480Z,101503.75
2022-08-29T02:24:26.296Z,101506.47
2022-08-29T02:24:48.376Z,101509.25
2022-08-29T02:25:30.681Z,101503.84
2022-08-29T02:25:53.290Z,101510.03
2022-08-29T02:26:15.924Z,101511.38
2022-08-29T02:26:37.612Z,101506.00
2022-08-29T02:26:59.786Z,101505.03
2022-08-29T02:27:21.438Z,101500.59
2022-08-29T02:27:43.418Z,101505.03
2022-08-29T02:28:06.043Z,101505.25
2022-08-29T02:28:27.806Z,101506.19
2022-08-29T02:28:51.632Z,101501.75
2022-08-29T02:29:13.437Z,101501.75
2022-08-29T02:29:37.915Z,101509.06
2022-08-29T02:30:00.068Z,101499.31
2022-08-29T02:30:22.486Z,101498.44
2022-08-29T02:30:49.910Z,101505.59
2022-08-29T02:31:16.828Z,101495.00
2022-08-29T02:31:39.071Z,101501.25
2022-08-29T02:32:00.902Z,101500.38
2022-08-29T02:32:22.536Z,101507.50
2022-08-29T02:32:45.257Z,101508.38
2022-08-29T02:33:08.011Z,101507.50
2022-08-29T02:33:31.261Z,101485.47
2022-08-29T02:33:54.345Z,101505.59
2022-08-29T02:34:17.151Z,101491.47
2022-08-29T02:34:39.972Z,101480.34
2022-08-29T02:35:05.956Z,101501.16
2022-08-29T02:35:29.090Z,101502.09
2022-08-29T02:35:53.352Z,101491.81
2022-08-29T02:36:15.479Z,101499.47
2022-08-29T02:36:37.837Z,101505.66
2022-08-29T02:37:00.957Z,101505.78
2022-08-29T02:37:22.616Z,101505.78
2022-08-29T02:37:44.284Z,101495.91
2022-08-29T02:38:06.366Z,101506.66
2022-08-29T02:38:29.846Z,101496.88
2022-08-29T02:38:51.525Z,101499.56
2022-08-29T02:39:13.344Z,101491.47
2022-08-29T02:39:35.013Z,101499.31
2022-08-29T02:39:57.625Z,101494.09
2022-08-29T02:40:24.671Z,101495.13
2022-08-29T02:40:53.181Z,101501.25
2022-08-29T02:41:15.412Z,101493.38
2022-08-29T02:41:37.103Z,101491.25
2022-08-29T02:41:59.749Z,101494.09
2022-08-29T02:42:21.365Z,101495.03
2022-08-29T02:42:43.051Z,101495.13
2022-08-29T02:43:05.789Z,101494.38
2022-08-29T02:43:27.848Z,101498.97
2022-08-29T02:43:50.541Z,101496.19
2022-08-29T02:44:12.487Z,101494.63
2022-08-29T02:44:34.224Z,101496.06
2022-08-29T02:44:55.913Z,101496.19
2022-08-29T02:45:18.675Z,101502.53
2022-08-29T02:45:41.848Z,101489.13
2022-08-29T02:46:04.685Z,101495.41
2022-08-29T02:46:26.571Z,101480.56
2022-08-29T02:46:50.192Z,101499.03
2022-08-29T02:47:11.961Z,101494.53
2022-08-29T02:47:35.277Z,101507.13
2022-08-29T02:47:57.656Z,101495.59
2022-08-29T02:48:19.668Z,101498.28
2022-08-29T02:48:43.014Z,101493.91
2022-08-29T02:49:21.549Z,101494.72
2022-08-29T02:49:43.685Z,101477.59
2022-08-29T02:50:07.625Z,101491.34
2022-08-29T02:50:30.881Z,101488.03
2022-08-29T02:50:55.406Z,101500.38
2022-08-29T02:51:22.960Z,101492.22
2022-08-29T02:51:45.587Z,101501.25
2022-08-29T02:52:08.528Z,101488.91
2022-08-29T02:52:34.098Z,101493.59
2022-08-29T02:52:58.578Z,101497.06
2022-08-29T02:53:22.044Z,101490.00
2022-08-29T02:53:44.733Z,101498.97
2022-08-29T02:54:06.622Z,101503.34
2022-08-29T02:54:28.302Z,101502.38
2022-08-29T02:54:49.968Z,101497.94
2022-08-29T02:55:17.778Z,101505.91
2022-08-29T02:55:41.315Z,101499.69
2022-08-29T02:56:03.500Z,101498.72
2022-08-29T02:56:25.649Z,101503.22
2022-08-29T02:56:48.516Z,101493.69
2022-08-29T02:57:10.204Z,101497.06
2022-08-29T02:57:31.905Z,101500.72
2022-08-29T02:57:54.802Z,101504.22
2022-08-29T02:58:16.647Z,101502.47
2022-08-29T02:58:39.380Z,101498.72
2022-08-29T02:59:01.167Z,101498.72
2022-08-29T02:59:22.830Z,101501.41
2022-08-29T02:59:44.515Z,101503.16
2022-08-29T03:00:09.988Z,101496.00
2022-08-29T03:00:34.561Z,101497.00
2022-08-29T03:00:56.675Z,101490.72
2022-08-29T03:01:20.367Z,101497.22
2022-08-29T03:01:42.155Z,101492.56
2022-08-29T03:02:05.286Z,101499.69
2022-08-29T03:02:27.756Z,101499.69
2022-08-29T03:02:50.137Z,101499.78
2022-08-29T03:03:12.146Z,101497.16
2022-08-29T03:03:33.833Z,101501.59
2022-08-29T03:03:56.450Z,101508.72
2022-08-29T03:04:18.132Z,101500.66
2022-08-29T03:04:41.855Z,101496.13
2022-08-29T03:05:04.416Z,101500.53
2022-08-29T03:05:29.745Z,101497.00
2022-08-29T03:05:51.496Z,101497.06
2022-08-29T03:06:13.153Z,101497.16
2022-08-29T03:06:34.883Z,101485.75
2022-08-29T03:06:57.656Z,101488.38
2022-08-29T03:07:19.448Z,101501.78
2022-08-29T03:07:41.402Z,101499.16
2022-08-29T03:08:07.126Z,101497.41
2022-08-29T03:08:29.941Z,101497.41
2022-08-29T03:08:51.969Z,101497.50
2022-08-29T03:09:15.885Z,101494.81
2022-08-29T03:09:37.558Z,101493.09
2022-08-29T03:10:01.025Z,101499.34
2022-08-29T03:10:23.566Z,101496.75
2022-08-29T03:10:46.664Z,101493.09
2022-08-29T03:11:08.469Z,101490.41
2022-08-29T03:11:31.111Z,101489.53
2022-08-29T03:11:56.038Z,101488.66
2022-08-29T03:12:17.777Z,101493.97
2022-08-29T03:12:40.008Z,101493.09
2022-08-29T03:13:01.821Z,101488.81
2022-08-29T03:13:24.525Z,101487.84
2022-08-29T03:13:46.216Z,101488.81
2022-08-29T03:14:08.811Z,101482.66
2022-08-29T03:14:31.125Z,101477.25
2022-08-29T03:14:54.017Z,101482.72
2022-08-29T03:15:16.783Z,101477.41
2022-08-29T03:15:38.593Z,101481.78
2022-08-29T03:16:02.206Z,101483.59
2022-08-29T03:16:25.032Z,101482.81
2022-08-29T03:16:46.805Z,101486.22
2022-08-29T03:17:08.460Z,101488.03
2022-08-29T03:17:31.051Z,101486.31
2022-08-29T03:17:54.068Z,101486.31
2022-08-29T03:18:17.395Z,101472.81
2022-08-29T03:18:39.110Z,101480.03
2022-08-29T03:19:00.742Z,101484.47
2022-08-29T03:19:22.914Z,101475.59
2022-08-29T03:19:44.632Z,101478.47
2022-08-29T03:20:09.924Z,101481.84
2022-08-29T03:20:34.290Z,101481.84
2022-08-29T03:20:56.316Z,101478.28
2022-08-29T03:21:20.926Z,101487.19
2022-08-29T03:21:44.422Z,101479.97
2022-08-29T03:22:06.337Z,101470.13
2022-08-29T03:22:28.652Z,101476.41
2022-08-29T03:22:51.248Z,101473.00
2022-08-29T03:23:13.933Z,101468.38
2022-08-29T03:23:35.850Z,101473.63
2022-08-29T03:23:57.532Z,101480.72
2022-08-29T03:24:26.953Z,101478.81
2022-08-29T03:24:49.968Z,101473.63
2022-08-29T03:25:12.806Z,101471.69
2022-08-29T03:25:35.089Z,101480.66
2022-08-29T03:25:59.588Z,101471.69
2022-08-29T03:26:23.004Z,101475.25
2022-08-29T03:26:44.937Z,101478.91
2022-08-29T03:27:16.258Z,101472.56
2022-08-29T03:27:38.868Z,101474.38
2022-08-29T03:28:01.724Z,101472.56
2022-08-29T03:28:23.439Z,101470.81
2022-08-29T03:28:45.317Z,101469.88
2022-08-29T03:29:06.982Z,101471.69
2022-08-29T03:29:29.704Z,101471.00
2022-08-29T03:29:51.402Z,101469.25
2022-08-29T03:30:15.778Z,101466.56
2022-08-29T03:30:37.503Z,101473.69
2022-08-29T03:31:00.275Z,101471.88
2022-08-29T03:31:22.095Z,101474.66
2022-08-29T03:31:43.874Z,101478.28
2022-08-29T03:32:06.259Z,101473.09
2022-08-29T03:32:29.605Z,101467.78
2022-08-29T03:32:54.565Z,101475.97
2022-08-29T03:33:17.531Z,101473.28
2022-08-29T03:33:39.169Z,101472.56
2022-08-29T03:34:01.981Z,101471.88
2022-08-29T03:34:23.904Z,101470.84
2022-08-29T03:34:45.603Z,101468.16
2022-08-29T03:35:09.769Z,101474.50
2022-08-29T03:35:33.082Z,101468.22
2022-08-29T03:35:55.171Z,101472.75
2022-08-29T03:36:18.087Z,101468.31
2022-08-29T03:36:39.845Z,101471.00
2022-08-29T03:37:01.902Z,101467.69
2022-08-29T03:37:24.406Z,101471.88
2022-08-29T03:37:47.532Z,101468.50
2022-08-29T03:38:10.225Z,101470.13
2022-08-29T03:38:31.881Z,101469.25
2022-08-29T03:38:54.033Z,101477.53
2022-08-29T03:39:15.730Z,101472.13
2022-08-29T03:39:38.239Z,101467.88
2022-08-29T03:40:01.985Z,101468.56
2022-08-29T03:40:24.931Z,101470.31
2022-08-29T03:40:46.669Z,101471.28
2022-08-29T03:41:09.813Z,101476.56
2022-08-29T03:41:32.647Z,101471.19
2022-08-29T03:41:54.461Z,101464.84
2022-08-29T03:42:16.172Z,101477.34
2022-08-29T03:42:37.870Z,101472.94
2022-08-29T03:43:03.212Z,101463.25
2022-08-29T03:43:24.943Z,101468.56
2022-08-29T03:43:46.591Z,101467.69
2022-08-29T03:44:08.332Z,101464.06
2022-08-29T03:44:31.956Z,101468.56
2022-08-29T03:44:54.615Z,101467.56
2022-08-29T03:45:18.520Z,101464.13
2022-08-29T03:45:40.152Z,101467.69
2022-08-29T03:46:02.927Z,101471.19
2022-08-29T03:46:25.480Z,101473.00
2022-08-29T03:46:47.425Z,101461.28
2022-08-29T03:47:09.817Z,101476.56
2022-08-29T03:47:31.504Z,101476.47
2022-08-29T03:47:55.225Z,101467.44
2022-08-29T03:48:17.099Z,101472.81
2022-08-29T03:48:38.742Z,101474.66
2022-08-29T03:49:00.556Z,101468.38
2022-08-29T03:49:23.234Z,101473.00
2022-08-29T03:49:45.448Z,101466.75
2022-08-29T03:50:08.470Z,101476.56
2022-08-29T03:50:30.122Z,101476.56
2022-08-29T03:50:56.281Z,101480.22
2022-08-29T03:51:19.148Z,101468.66
2022-08-29T03:51:41.432Z,101469.63
2022-08-29T03:52:04.335Z,101472.31
2022-08-29T03:52:26.282Z,101473.28
2022-08-29T03:52:49.873Z,101469.78
2022-08-29T03:53:11.765Z,101475.97
2022-08-29T03:53:33.561Z,101472.41
2022-08-29T03:53:55.590Z,101473.34
2022-08-29T03:54:17.386Z,101475.97
2022-08-29T03:54:40.120Z,101468.91
2022-08-29T03:55:01.841Z,101471.53
2022-08-29T03:55:23.676Z,101469.63
2022-08-29T03:55:46.275Z,101467.69
2022-08-29T03:56:18.106Z,101466.94
2022-08-29T03:56:40.646Z,101476.66
2022-08-29T03:57:04.402Z,101476.56
2022-08-29T03:57:26.319Z,101475.78
2022-08-29T03:57:50.862Z,101464.94
2022-08-29T03:58:12.567Z,101473.00
2022-08-29T03:58:34.369Z,101466.84
2022-08-29T03:58:56.708Z,101467.00
2022-08-29T03:59:20.129Z,101464.41
2022-08-29T03:59:42.924Z,101464.41
2022-08-29T04:00:10.539Z,101476.84
2022-08-29T04:00:33.632Z,101470.84
2022-08-29T04:00:56.246Z,101475.16
2022-08-29T04:01:19.263Z,101474.56
2022-08-29T04:01:41.028Z,101473.44
2022-08-29T04:02:03.322Z,101473.63
2022-08-29T04:02:25.067Z,101474.66
2022-08-29T04:02:49.280Z,101472.75
2022-08-29T04:03:11.190Z,101472.75
2022-08-29T04:03:32.991Z,101477.09
2022-08-29T04:03:55.956Z,101468.91
2022-08-29T04:04:34.689Z,101468.84
2022-08-29T04:05:09.787Z,101468.03
2022-08-29T04:05:33.976Z,101462.56
2022-08-29T04:05:55.902Z,101464.31
2022-08-29T04:06:18.811Z,101459.28
2022-08-29T04:06:41.647Z,101476.38
2022-08-29T04:07:06.316Z,101463.97
2022-08-29T04:07:28.309Z,101470.31
2022-08-29T04:07:52.470Z,101473.03
2022-08-29T04:08:14.274Z,101473.16
2022-08-29T04:08:38.488Z,101460.78
2022-08-29T04:09:00.848Z,101450.72
2022-08-29T04:09:22.459Z,101467.16
2022-08-29T04:09:45.321Z,101467.31
2022-08-29T04:10:12.665Z,101466.34
2022-08-29T04:10:39.451Z,101465.41
2022-08-29T04:11:01.171Z,101470.78
2022-08-29T04:11:28.122Z,101465.47
2022-08-29T04:11:49.788Z,101470.00
2022-08-29T04:12:13.156Z,101460.16
2022-08-29T04:12:35.756Z,101465.41
2022-08-29T04:12:59.039Z,101463.84
2022-08-29T04:13:20.927Z,101467.31
2022-08-29T04:13:42.931Z,101466.28
2022-08-29T04:14:05.566Z,101462.03
2022-08-29T04:14:27.277Z,101457.47
2022-08-29T04:14:49.046Z,101474.19
2022-08-29T04:15:11.303Z,101461.66
2022-08-29T04:15:35.365Z,101469.75
2022-08-29T04:15:57.088Z,101464.34
2022-08-29T04:16:22.678Z,101471.47
2022-08-29T04:16:48.423Z,101463.41
2022-08-29T04:17:12.245Z,101464.28
2022-08-29T04:17:34.385Z,101470.53
2022-08-29T04:17:58.441Z,101466.91
2022-08-29T04:18:21.553Z,101459.84
2022-08-29T04:18:45.256Z,101472.34
2022-08-29T04:19:06.935Z,101469.66
2022-08-29T04:19:30.957Z,101463.59
2022-08-29T04:19:52.932Z,101473.31
2022-08-29T04:20:16.033Z,101469.75
2022-08-29T04:20:39.400Z,101470.00
2022-08-29T04:21:02.236Z,101471.66
2022-08-29T04:21:25.021Z,101476.00
2022-08-29T04:21:48.859Z,101471.75
2022-08-29T04:22:10.555Z,101473.16
2022-08-29T04:22:33.987Z,101478.44
2022-08-29T04:22:57.456Z,101478.44
2022-08-29T04:23:20.121Z,101480.25
2022-08-29T04:23:42.141Z,101481.31
2022-08-29T04:24:03.894Z,101471.47
2022-08-29T04:24:25.579Z,101476.78
2022-08-29T04:24:47.266Z,101485.63
2022-08-29T04:25:13.318Z,101462.09
2022-08-29T04:25:37.376Z,101478.69
2022-08-29T04:26:19.160Z,101483.13
2022-08-29T04:26:43.683Z,101481.38
2022-08-29T04:27:05.450Z,101483.13
2022-08-29T04:27:27.674Z,101487.63
2022-08-29T04:27:49.724Z,101493.72
2022-08-29T04:28:14.635Z,101481.22
2022-08-29T04:28:36.464Z,101484.88
2022-08-29T04:28:58.092Z,101483.13
2022-08-29T04:29:19.774Z,101483.31
2022-08-29T04:29:41.463Z,101483.31